sensor_id;sensor_type;location;lat;lon;timestamp;P1;durP1;ratioP1;P2;durP2;ratioP2
10174;SDS011;18221;38.704;0.152;2023-09-18T00:11:53;6.97;;;3.20;;
10174;SDS011;18221;38.704;0.152;2023-09-18T00:14:21;6.45;;;3.22;;
10174;SDS011;18221;38.704;0.152;2023-09-18T00:16:49;10.07;;;3.53;;
10174;SDS011;18221;38.704;0.152;2023-09-18T00:19:18;7.55;;;3.65;;
10174;SDS011;18221;38.704;0.152;2023-09-18T00:21:45;7.55;;;3.67;;
10174;SDS011;18221;38.704;0.152;2023-09-18T00:24:13;9.65;;;3.53;;
10174;SDS011;18221;38.704;0.152;2023-09-18T00:26:42;9.00;;;4.40;;
10174;SDS011;18221;38.704;0.152;2023-09-18T00:29:12;14.30;;;4.30;;
10174;SDS011;18221;38.704;0.152;2023-09-18T00:31:40;7.83;;;3.60;;
10174;SDS011;18221;38.704;0.152;2023-09-18T00:34:08;10.88;;;4.10;;
10174;SDS011;18221;38.704;0.152;2023-09-18T00:36:36;7.97;;;3.40;;
10174;SDS011;18221;38.704;0.152;2023-09-18T00:39:04;9.30;;;3.30;;
10174;SDS011;18221;38.704;0.152;2023-09-18T00:41:33;7.38;;;3.10;;
10174;SDS011;18221;38.704;0.152;2023-09-18T00:44:01;6.13;;;3.00;;
10174;SDS011;18221;38.704;0.152;2023-09-18T00:50:12;15.63;;;6.20;;
10174;SDS011;18221;38.704;0.152;2023-09-18T00:52:42;12.03;;;5.37;;
10174;SDS011;18221;38.704;0.152;2023-09-18T00:55:10;14.33;;;7.30;;
10174;SDS011;18221;38.704;0.152;2023-09-18T00:57:38;15.37;;;6.50;;
10174;SDS011;18221;38.704;0.152;2023-09-18T01:00:07;16.77;;;7.33;;
10174;SDS011;18221;38.704;0.152;2023-09-18T01:02:35;12.77;;;7.10;;
10174;SDS011;18221;38.704;0.152;2023-09-18T01:05:03;11.87;;;7.03;;
10174;SDS011;18221;38.704;0.152;2023-09-18T01:07:34;14.57;;;7.23;;
10174;SDS011;18221;38.704;0.152;2023-09-18T01:10:02;17.00;;;7.37;;
10174;SDS011;18221;38.704;0.152;2023-09-18T01:12:33;20.20;;;7.97;;
10174;SDS011;18221;38.704;0.152;2023-09-18T01:15:11;17.00;;;7.97;;
10174;SDS011;18221;38.704;0.152;2023-09-18T01:17:48;22.73;;;8.30;;
10174;SDS011;18221;38.704;0.152;2023-09-18T01:20:16;14.47;;;8.73;;
10174;SDS011;18221;38.704;0.152;2023-09-18T01:22:47;23.70;;;9.57;;
10174;SDS011;18221;38.704;0.152;2023-09-18T01:25:15;26.73;;;10.23;;
10174;SDS011;18221;38.704;0.152;2023-09-18T01:30:42;24.57;;;10.13;;
10174;SDS011;18221;38.704;0.152;2023-09-18T01:33:10;24.10;;;9.70;;
10174;SDS011;18221;38.704;0.152;2023-09-18T01:35:40;21.87;;;9.97;;
10174;SDS011;18221;38.704;0.152;2023-09-18T01:38:13;18.47;;;9.50;;
10174;SDS011;18221;38.704;0.152;2023-09-18T01:40:42;13.80;;;8.90;;
10174;SDS011;18221;38.704;0.152;2023-09-18T01:43:11;15.47;;;9.17;;
10174;SDS011;18221;38.704;0.152;2023-09-18T01:45:39;17.13;;;9.43;;
10174;SDS011;18221;38.704;0.152;2023-09-18T01:48:08;17.90;;;9.53;;
10174;SDS011;18221;38.704;0.152;2023-09-18T01:50:36;19.43;;;9.37;;
10174;SDS011;18221;38.704;0.152;2023-09-18T01:53:05;19.20;;;10.00;;
10174;SDS011;18221;38.704;0.152;2023-09-18T01:55:35;17.90;;;10.10;;
10174;SDS011;18221;38.704;0.152;2023-09-18T01:58:03;16.80;;;10.17;;
10174;SDS011;18221;38.704;0.152;2023-09-18T02:00:31;21.63;;;10.03;;
10174;SDS011;18221;38.704;0.152;2023-09-18T02:02:59;20.20;;;9.70;;
10174;SDS011;18221;38.704;0.152;2023-09-18T02:05:27;18.20;;;9.53;;
10174;SDS011;18221;38.704;0.152;2023-09-18T02:07:55;21.80;;;10.33;;
10174;SDS011;18221;38.704;0.152;2023-09-18T02:10:23;17.70;;;9.30;;
10174;SDS011;18221;38.704;0.152;2023-09-18T02:12:52;12.17;;;8.67;;
10174;SDS011;18221;38.704;0.152;2023-09-18T02:15:20;16.50;;;8.83;;
10174;SDS011;18221;38.704;0.152;2023-09-18T02:17:48;19.33;;;8.80;;
10174;SDS011;18221;38.704;0.152;2023-09-18T02:20:16;15.27;;;8.93;;
10174;SDS011;18221;38.704;0.152;2023-09-18T02:22:43;16.13;;;9.47;;
10174;SDS011;18221;38.704;0.152;2023-09-18T02:25:12;14.73;;;8.43;;
10174;SDS011;18221;38.704;0.152;2023-09-18T02:27:40;13.17;;;8.87;;
10174;SDS011;18221;38.704;0.152;2023-09-18T02:30:10;16.80;;;8.57;;
10174;SDS011;18221;38.704;0.152;2023-09-18T02:32:39;12.63;;;8.67;;
10174;SDS011;18221;38.704;0.152;2023-09-18T02:35:07;13.00;;;8.23;;
10174;SDS011;18221;38.704;0.152;2023-09-18T02:37:35;18.00;;;9.37;;
10174;SDS011;18221;38.704;0.152;2023-09-18T02:40:03;15.80;;;9.23;;
10174;SDS011;18221;38.704;0.152;2023-09-18T02:42:33;12.43;;;8.30;;
10174;SDS011;18221;38.704;0.152;2023-09-18T02:45:01;13.77;;;8.57;;
10174;SDS011;18221;38.704;0.152;2023-09-18T02:47:32;16.40;;;8.97;;
10174;SDS011;18221;38.704;0.152;2023-09-18T02:50:02;17.37;;;9.00;;
10174;SDS011;18221;38.704;0.152;2023-09-18T02:52:31;17.07;;;8.73;;
10174;SDS011;18221;38.704;0.152;2023-09-18T02:54:59;19.90;;;9.30;;
10174;SDS011;18221;38.704;0.152;2023-09-18T02:57:28;14.03;;;9.63;;
10174;SDS011;18221;38.704;0.152;2023-09-18T02:59:56;20.37;;;10.20;;
10174;SDS011;18221;38.704;0.152;2023-09-18T03:02:24;15.93;;;9.27;;
10174;SDS011;18221;38.704;0.152;2023-09-18T03:04:53;12.10;;;8.83;;
10174;SDS011;18221;38.704;0.152;2023-09-18T03:07:21;20.17;;;9.40;;
10174;SDS011;18221;38.704;0.152;2023-09-18T03:09:49;20.53;;;10.37;;
10174;SDS011;18221;38.704;0.152;2023-09-18T03:12:17;16.27;;;10.33;;
10174;SDS011;18221;38.704;0.152;2023-09-18T03:14:45;15.83;;;10.50;;
10174;SDS011;18221;38.704;0.152;2023-09-18T03:17:13;19.97;;;10.90;;
10174;SDS011;18221;38.704;0.152;2023-09-18T03:19:40;20.97;;;10.83;;
10174;SDS011;18221;38.704;0.152;2023-09-18T03:22:10;21.90;;;10.03;;
10174;SDS011;18221;38.704;0.152;2023-09-18T03:24:38;21.63;;;10.97;;
10174;SDS011;18221;38.704;0.152;2023-09-18T03:27:06;26.20;;;11.10;;
10174;SDS011;18221;38.704;0.152;2023-09-18T03:29:34;15.67;;;9.97;;
10174;SDS011;18221;38.704;0.152;2023-09-18T03:32:02;13.67;;;10.07;;
10174;SDS011;18221;38.704;0.152;2023-09-18T03:34:31;17.97;;;10.37;;
10174;SDS011;18221;38.704;0.152;2023-09-18T03:36:59;15.80;;;11.40;;
10174;SDS011;18221;38.704;0.152;2023-09-18T03:39:28;21.57;;;10.90;;
10174;SDS011;18221;38.704;0.152;2023-09-18T03:41:56;17.20;;;11.20;;
10174;SDS011;18221;38.704;0.152;2023-09-18T03:44:24;14.53;;;10.43;;
10174;SDS011;18221;38.704;0.152;2023-09-18T03:46:52;21.83;;;11.47;;
10174;SDS011;18221;38.704;0.152;2023-09-18T03:49:20;18.57;;;11.47;;
10174;SDS011;18221;38.704;0.152;2023-09-18T03:51:48;23.70;;;11.43;;
10174;SDS011;18221;38.704;0.152;2023-09-18T03:54:16;19.37;;;11.77;;
10174;SDS011;18221;38.704;0.152;2023-09-18T03:56:46;16.43;;;11.47;;
10174;SDS011;18221;38.704;0.152;2023-09-18T03:59:14;23.47;;;11.90;;
10174;SDS011;18221;38.704;0.152;2023-09-18T04:01:42;20.27;;;11.60;;
10174;SDS011;18221;38.704;0.152;2023-09-18T04:04:12;21.17;;;11.77;;
10174;SDS011;18221;38.704;0.152;2023-09-18T04:06:41;22.23;;;11.13;;
10174;SDS011;18221;38.704;0.152;2023-09-18T04:09:11;18.03;;;11.40;;
10174;SDS011;18221;38.704;0.152;2023-09-18T04:11:40;17.97;;;11.23;;
10174;SDS011;18221;38.704;0.152;2023-09-18T04:14:12;16.70;;;11.53;;
10174;SDS011;18221;38.704;0.152;2023-09-18T04:16:40;30.53;;;14.17;;
10174;SDS011;18221;38.704;0.152;2023-09-18T04:19:09;19.43;;;11.03;;
10174;SDS011;18221;38.704;0.152;2023-09-18T04:21:37;18.03;;;11.57;;
10174;SDS011;18221;38.704;0.152;2023-09-18T04:24:05;14.97;;;11.27;;
10174;SDS011;18221;38.704;0.152;2023-09-18T04:26:33;20.73;;;11.27;;
10174;SDS011;18221;38.704;0.152;2023-09-18T04:29:03;23.07;;;12.17;;
10174;SDS011;18221;38.704;0.152;2023-09-18T04:31:32;18.10;;;11.17;;
10174;SDS011;18221;38.704;0.152;2023-09-18T04:34:00;18.00;;;11.80;;
10174;SDS011;18221;38.704;0.152;2023-09-18T04:36:28;17.40;;;12.53;;
10174;SDS011;18221;38.704;0.152;2023-09-18T04:38:57;23.80;;;12.33;;
10174;SDS011;18221;38.704;0.152;2023-09-18T04:41:25;20.80;;;12.63;;
10174;SDS011;18221;38.704;0.152;2023-09-18T04:43:53;23.83;;;13.40;;
10174;SDS011;18221;38.704;0.152;2023-09-18T04:46:21;27.97;;;12.70;;
10174;SDS011;18221;38.704;0.152;2023-09-18T04:48:52;24.83;;;12.80;;
10174;SDS011;18221;38.704;0.152;2023-09-18T04:51:20;26.37;;;13.67;;
10174;SDS011;18221;38.704;0.152;2023-09-18T04:53:48;17.10;;;12.00;;
10174;SDS011;18221;38.704;0.152;2023-09-18T04:56:17;24.03;;;13.03;;
10174;SDS011;18221;38.704;0.152;2023-09-18T04:58:46;31.37;;;13.57;;
10174;SDS011;18221;38.704;0.152;2023-09-18T05:01:14;24.97;;;13.13;;
10174;SDS011;18221;38.704;0.152;2023-09-18T05:03:42;26.40;;;13.97;;
10174;SDS011;18221;38.704;0.152;2023-09-18T05:06:13;28.67;;;14.20;;
10174;SDS011;18221;38.704;0.152;2023-09-18T05:08:43;24.90;;;13.83;;
10174;SDS011;18221;38.704;0.152;2023-09-18T05:11:11;29.53;;;13.43;;
10174;SDS011;18221;38.704;0.152;2023-09-18T05:13:39;24.37;;;13.10;;
10174;SDS011;18221;38.704;0.152;2023-09-18T05:16:07;27.17;;;12.60;;
10174;SDS011;18221;38.704;0.152;2023-09-18T05:18:35;29.93;;;13.10;;
10174;SDS011;18221;38.704;0.152;2023-09-18T05:21:04;25.17;;;12.47;;
10174;SDS011;18221;38.704;0.152;2023-09-18T05:23:33;23.80;;;12.17;;
10174;SDS011;18221;38.704;0.152;2023-09-18T05:26:02;25.37;;;12.27;;
10174;SDS011;18221;38.704;0.152;2023-09-18T05:28:30;23.77;;;12.03;;
10174;SDS011;18221;38.704;0.152;2023-09-18T05:30:58;23.97;;;12.80;;
10174;SDS011;18221;38.704;0.152;2023-09-18T05:33:27;22.47;;;11.53;;
10174;SDS011;18221;38.704;0.152;2023-09-18T05:35:55;24.07;;;11.57;;
10174;SDS011;18221;38.704;0.152;2023-09-18T05:38:23;24.70;;;11.50;;
10174;SDS011;18221;38.704;0.152;2023-09-18T05:40:51;24.40;;;11.27;;
10174;SDS011;18221;38.704;0.152;2023-09-18T05:43:19;18.93;;;10.10;;
10174;SDS011;18221;38.704;0.152;2023-09-18T05:45:47;15.10;;;10.40;;
10174;SDS011;18221;38.704;0.152;2023-09-18T05:48:16;13.07;;;8.87;;
10174;SDS011;18221;38.704;0.152;2023-09-18T05:50:44;13.70;;;8.97;;
10174;SDS011;18221;38.704;0.152;2023-09-18T05:53:13;18.77;;;8.37;;
10174;SDS011;18221;38.704;0.152;2023-09-18T05:55:41;11.77;;;8.63;;
10174;SDS011;18221;38.704;0.152;2023-09-18T05:58:11;14.97;;;8.33;;
10174;SDS011;18221;38.704;0.152;2023-09-18T06:00:39;15.13;;;8.00;;
10174;SDS011;18221;38.704;0.152;2023-09-18T06:03:07;13.53;;;8.00;;
10174;SDS011;18221;38.704;0.152;2023-09-18T06:05:37;12.77;;;7.63;;
10174;SDS011;18221;38.704;0.152;2023-09-18T06:08:05;11.80;;;7.50;;
10174;SDS011;18221;38.704;0.152;2023-09-18T06:10:33;14.33;;;7.90;;
10174;SDS011;18221;38.704;0.152;2023-09-18T06:13:01;13.33;;;8.53;;
10174;SDS011;18221;38.704;0.152;2023-09-18T06:15:32;14.23;;;8.13;;
10174;SDS011;18221;38.704;0.152;2023-09-18T06:18:00;19.47;;;8.67;;
10174;SDS011;18221;38.704;0.152;2023-09-18T06:20:31;17.33;;;8.93;;
10174;SDS011;18221;38.704;0.152;2023-09-18T06:22:59;14.90;;;8.13;;
10174;SDS011;18221;38.704;0.152;2023-09-18T06:25:29;11.63;;;8.03;;
10174;SDS011;18221;38.704;0.152;2023-09-18T06:27:57;13.20;;;8.07;;
10174;SDS011;18221;38.704;0.152;2023-09-18T06:30:26;10.20;;;7.87;;
10174;SDS011;18221;38.704;0.152;2023-09-18T06:32:58;11.10;;;7.07;;
10174;SDS011;18221;38.704;0.152;2023-09-18T06:35:26;9.93;;;7.20;;
10174;SDS011;18221;38.704;0.152;2023-09-18T06:37:54;10.60;;;6.90;;
10174;SDS011;18221;38.704;0.152;2023-09-18T06:40:23;10.00;;;7.00;;
10174;SDS011;18221;38.704;0.152;2023-09-18T06:42:57;9.83;;;6.30;;
10174;SDS011;18221;38.704;0.152;2023-09-18T06:45:26;7.37;;;5.93;;
10174;SDS011;18221;38.704;0.152;2023-09-18T06:47:54;6.67;;;5.23;;
10174;SDS011;18221;38.704;0.152;2023-09-18T06:50:23;6.70;;;5.30;;
10174;SDS011;18221;38.704;0.152;2023-09-18T06:52:51;7.43;;;5.40;;
10174;SDS011;18221;38.704;0.152;2023-09-18T06:55:19;7.43;;;5.03;;
10174;SDS011;18221;38.704;0.152;2023-09-18T06:57:47;7.30;;;5.30;;
10174;SDS011;18221;38.704;0.152;2023-09-18T07:00:18;5.80;;;4.27;;
10174;SDS011;18221;38.704;0.152;2023-09-18T07:02:49;7.33;;;4.77;;
10174;SDS011;18221;38.704;0.152;2023-09-18T07:05:17;6.93;;;5.10;;
10174;SDS011;18221;38.704;0.152;2023-09-18T07:07:47;7.63;;;5.00;;
10174;SDS011;18221;38.704;0.152;2023-09-18T07:10:15;5.70;;;4.50;;
10174;SDS011;18221;38.704;0.152;2023-09-18T07:12:44;5.93;;;4.10;;
10174;SDS011;18221;38.704;0.152;2023-09-18T07:15:12;6.53;;;4.43;;
10174;SDS011;18221;38.704;0.152;2023-09-18T07:17:40;10.27;;;4.20;;
10174;SDS011;18221;38.704;0.152;2023-09-18T07:20:08;5.30;;;4.20;;
10174;SDS011;18221;38.704;0.152;2023-09-18T07:22:39;5.63;;;4.20;;
10174;SDS011;18221;38.704;0.152;2023-09-18T07:25:09;5.90;;;4.27;;
10174;SDS011;18221;38.704;0.152;2023-09-18T07:27:36;7.77;;;4.40;;
10174;SDS011;18221;38.704;0.152;2023-09-18T07:30:09;5.77;;;3.80;;
10174;SDS011;18221;38.704;0.152;2023-09-18T07:32:39;8.97;;;4.40;;
10174;SDS011;18221;38.704;0.152;2023-09-18T07:35:07;5.53;;;3.80;;
10174;SDS011;18221;38.704;0.152;2023-09-18T07:37:36;6.97;;;4.10;;
10174;SDS011;18221;38.704;0.152;2023-09-18T07:40:05;5.87;;;3.57;;
10174;SDS011;18221;38.704;0.152;2023-09-18T07:42:35;4.27;;;3.47;;
10174;SDS011;18221;38.704;0.152;2023-09-18T07:45:04;5.87;;;3.10;;
10174;SDS011;18221;38.704;0.152;2023-09-18T07:47:33;4.43;;;3.30;;
10174;SDS011;18221;38.704;0.152;2023-09-18T07:50:00;3.67;;;2.73;;
10174;SDS011;18221;38.704;0.152;2023-09-18T07:52:29;2.97;;;2.63;;
10174;SDS011;18221;38.704;0.152;2023-09-18T07:54:57;5.27;;;2.70;;
10174;SDS011;18221;38.704;0.152;2023-09-18T07:57:25;6.00;;;2.47;;
10174;SDS011;18221;38.704;0.152;2023-09-18T07:59:57;3.13;;;2.47;;
10174;SDS011;18221;38.704;0.152;2023-09-18T08:02:27;3.43;;;2.30;;
10174;SDS011;18221;38.704;0.152;2023-09-18T08:04:57;3.30;;;2.20;;
10174;SDS011;18221;38.704;0.152;2023-09-18T08:07:24;2.83;;;2.23;;
10174;SDS011;18221;38.704;0.152;2023-09-18T08:09:53;3.70;;;2.50;;
10174;SDS011;18221;38.704;0.152;2023-09-18T08:12:21;3.50;;;2.70;;
10174;SDS011;18221;38.704;0.152;2023-09-18T08:14:50;2.93;;;2.30;;
10174;SDS011;18221;38.704;0.152;2023-09-18T08:17:19;2.60;;;2.40;;
10174;SDS011;18221;38.704;0.152;2023-09-18T08:19:49;3.87;;;2.67;;
10174;SDS011;18221;38.704;0.152;2023-09-18T08:22:18;2.60;;;2.40;;
10174;SDS011;18221;38.704;0.152;2023-09-18T08:24:47;3.60;;;2.63;;
10174;SDS011;18221;38.704;0.152;2023-09-18T08:27:17;4.07;;;2.50;;
10174;SDS011;18221;38.704;0.152;2023-09-18T08:29:46;4.17;;;3.00;;
10174;SDS011;18221;38.704;0.152;2023-09-18T08:32:14;3.70;;;2.97;;
10174;SDS011;18221;38.704;0.152;2023-09-18T08:34:43;4.93;;;3.03;;
10174;SDS011;18221;38.704;0.152;2023-09-18T08:37:11;4.87;;;2.70;;
10174;SDS011;18221;38.704;0.152;2023-09-18T08:39:39;3.70;;;3.00;;
10174;SDS011;18221;38.704;0.152;2023-09-18T08:42:07;5.77;;;3.20;;
10174;SDS011;18221;38.704;0.152;2023-09-18T08:44:40;3.70;;;2.80;;
10174;SDS011;18221;38.704;0.152;2023-09-18T08:47:11;3.97;;;2.83;;
10174;SDS011;18221;38.704;0.152;2023-09-18T08:49:43;3.83;;;2.97;;
10174;SDS011;18221;38.704;0.152;2023-09-18T08:52:15;5.33;;;3.03;;
10174;SDS011;18221;38.704;0.152;2023-09-18T08:54:43;5.10;;;3.17;;
10174;SDS011;18221;38.704;0.152;2023-09-18T08:57:13;5.53;;;3.37;;
10174;SDS011;18221;38.704;0.152;2023-09-18T08:59:41;4.53;;;3.53;;
10174;SDS011;18221;38.704;0.152;2023-09-18T09:02:11;6.23;;;3.53;;
10174;SDS011;18221;38.704;0.152;2023-09-18T09:04:42;4.53;;;2.80;;
10174;SDS011;18221;38.704;0.152;2023-09-18T09:07:11;5.70;;;3.13;;
10174;SDS011;18221;38.704;0.152;2023-09-18T09:09:39;6.70;;;3.47;;
10174;SDS011;18221;38.704;0.152;2023-09-18T09:12:08;4.97;;;3.30;;
10174;SDS011;18221;38.704;0.152;2023-09-18T09:14:36;5.33;;;3.60;;
10174;SDS011;18221;38.704;0.152;2023-09-18T09:17:04;4.07;;;3.40;;
10174;SDS011;18221;38.704;0.152;2023-09-18T09:19:33;4.23;;;2.87;;
10174;SDS011;18221;38.704;0.152;2023-09-18T09:22:05;5.53;;;3.20;;
10174;SDS011;18221;38.704;0.152;2023-09-18T09:24:38;4.07;;;3.10;;
10174;SDS011;18221;38.704;0.152;2023-09-18T09:27:07;4.17;;;3.20;;
10174;SDS011;18221;38.704;0.152;2023-09-18T09:29:36;3.60;;;3.30;;
10174;SDS011;18221;38.704;0.152;2023-09-18T09:32:14;3.30;;;2.93;;
10174;SDS011;18221;38.704;0.152;2023-09-18T09:34:44;4.30;;;2.73;;
10174;SDS011;18221;38.704;0.152;2023-09-18T09:37:14;5.63;;;3.53;;
10174;SDS011;18221;38.704;0.152;2023-09-18T09:39:49;5.17;;;3.50;;
10174;SDS011;18221;38.704;0.152;2023-09-18T09:42:18;4.03;;;3.17;;
10174;SDS011;18221;38.704;0.152;2023-09-18T09:44:55;5.43;;;3.20;;
10174;SDS011;18221;38.704;0.152;2023-09-18T09:47:41;4.50;;;3.43;;
10174;SDS011;18221;38.704;0.152;2023-09-18T09:50:10;4.43;;;3.30;;
10174;SDS011;18221;38.704;0.152;2023-09-18T09:52:44;6.10;;;3.27;;
10174;SDS011;18221;38.704;0.152;2023-09-18T09:55:18;4.97;;;3.47;;
10174;SDS011;18221;38.704;0.152;2023-09-18T09:57:54;4.10;;;3.33;;
10174;SDS011;18221;38.704;0.152;2023-09-18T10:00:29;4.97;;;3.60;;
10174;SDS011;18221;38.704;0.152;2023-09-18T10:03:08;4.50;;;3.13;;
10174;SDS011;18221;38.704;0.152;2023-09-18T10:05:40;5.03;;;3.43;;
10174;SDS011;18221;38.704;0.152;2023-09-18T10:08:12;5.65;;;3.15;;
10174;SDS011;18221;38.704;0.152;2023-09-18T10:10:46;6.57;;;3.28;;
10174;SDS011;18221;38.704;0.152;2023-09-18T10:13:17;4.47;;;3.30;;
10174;SDS011;18221;38.704;0.152;2023-09-18T10:15:51;4.60;;;3.20;;
10174;SDS011;18221;38.704;0.152;2023-09-18T10:18:22;5.05;;;3.30;;
10174;SDS011;18221;38.704;0.152;2023-09-18T10:20:57;5.40;;;3.72;;
10174;SDS011;18221;38.704;0.152;2023-09-18T10:23:45;5.45;;;3.50;;
10174;SDS011;18221;38.704;0.152;2023-09-18T10:26:25;6.07;;;3.40;;
10174;SDS011;18221;38.704;0.152;2023-09-18T10:28:55;5.00;;;2.92;;
10174;SDS011;18221;38.704;0.152;2023-09-18T10:31:28;4.30;;;3.10;;
10174;SDS011;18221;38.704;0.152;2023-09-18T10:34:00;4.05;;;3.30;;
10174;SDS011;18221;38.704;0.152;2023-09-18T10:36:31;5.38;;;3.00;;
10174;SDS011;18221;38.704;0.152;2023-09-18T10:39:04;4.07;;;3.05;;
10174;SDS011;18221;38.704;0.152;2023-09-18T10:41:38;4.18;;;2.78;;
10174;SDS011;18221;38.704;0.152;2023-09-18T10:44:08;3.83;;;3.33;;
10174;SDS011;18221;38.704;0.152;2023-09-18T10:46:38;4.70;;;3.22;;
10174;SDS011;18221;38.704;0.152;2023-09-18T10:49:06;4.97;;;3.38;;
10174;SDS011;18221;38.704;0.152;2023-09-18T10:51:34;6.03;;;3.20;;
10174;SDS011;18221;38.704;0.152;2023-09-18T10:54:10;6.35;;;3.45;;
10174;SDS011;18221;38.704;0.152;2023-09-18T10:56:42;7.35;;;3.38;;
10174;SDS011;18221;38.704;0.152;2023-09-18T10:59:11;3.95;;;3.15;;
10174;SDS011;18221;38.704;0.152;2023-09-18T11:01:41;5.63;;;3.40;;
10174;SDS011;18221;38.704;0.152;2023-09-18T11:04:10;4.95;;;3.10;;
10174;SDS011;18221;38.704;0.152;2023-09-18T11:09:32;5.10;;;2.97;;
10174;SDS011;18221;38.704;0.152;2023-09-18T11:12:09;3.40;;;3.00;;
10174;SDS011;18221;38.704;0.152;2023-09-18T11:14:43;4.90;;;2.78;;
10174;SDS011;18221;38.704;0.152;2023-09-18T11:17:28;7.97;;;3.50;;
10174;SDS011;18221;38.704;0.152;2023-09-18T11:20:04;5.55;;;3.55;;
10174;SDS011;18221;38.704;0.152;2023-09-18T11:22:37;5.18;;;3.20;;
10174;SDS011;18221;38.704;0.152;2023-09-18T11:28:22;6.97;;;3.50;;
10174;SDS011;18221;38.704;0.152;2023-09-18T11:30:52;4.45;;;3.10;;
10174;SDS011;18221;38.704;0.152;2023-09-18T11:33:30;6.05;;;3.50;;
10174;SDS011;18221;38.704;0.152;2023-09-18T11:36:03;4.07;;;3.50;;
10174;SDS011;18221;38.704;0.152;2023-09-18T11:38:51;9.65;;;3.65;;
10174;SDS011;18221;38.704;0.152;2023-09-18T11:41:22;7.38;;;3.15;;
10174;SDS011;18221;38.704;0.152;2023-09-18T11:43:52;3.75;;;3.05;;
10174;SDS011;18221;38.704;0.152;2023-09-18T11:46:58;6.30;;;3.45;;
10174;SDS011;18221;38.704;0.152;2023-09-18T11:49:29;4.53;;;3.60;;
10174;SDS011;18221;38.704;0.152;2023-09-18T11:51:59;6.95;;;3.17;;
10174;SDS011;18221;38.704;0.152;2023-09-18T11:54:28;6.13;;;3.58;;
10174;SDS011;18221;38.704;0.152;2023-09-18T11:57:04;5.28;;;3.78;;
10174;SDS011;18221;38.704;0.152;2023-09-18T11:59:33;6.28;;;3.30;;
10174;SDS011;18221;38.704;0.152;2023-09-18T12:02:06;6.38;;;3.30;;
10174;SDS011;18221;38.704;0.152;2023-09-18T12:04:35;4.93;;;3.40;;
10174;SDS011;18221;38.704;0.152;2023-09-18T12:07:04;6.85;;;3.42;;
10174;SDS011;18221;38.704;0.152;2023-09-18T12:09:33;4.63;;;3.20;;
10174;SDS011;18221;38.704;0.152;2023-09-18T12:12:06;6.35;;;3.30;;
10174;SDS011;18221;38.704;0.152;2023-09-18T12:14:36;5.78;;;3.40;;
10174;SDS011;18221;38.704;0.152;2023-09-18T12:17:07;4.85;;;3.33;;
10174;SDS011;18221;38.704;0.152;2023-09-18T12:19:35;5.10;;;3.40;;
10174;SDS011;18221;38.704;0.152;2023-09-18T12:22:03;5.68;;;3.15;;
10174;SDS011;18221;38.704;0.152;2023-09-18T12:24:31;7.70;;;3.50;;
10174;SDS011;18221;38.704;0.152;2023-09-18T12:26:59;4.63;;;3.47;;
10174;SDS011;18221;38.704;0.152;2023-09-18T12:29:28;6.85;;;3.25;;
10174;SDS011;18221;38.704;0.152;2023-09-18T12:31:59;5.50;;;3.08;;
10174;SDS011;18221;38.704;0.152;2023-09-18T12:34:31;7.63;;;3.42;;
10174;SDS011;18221;38.704;0.152;2023-09-18T12:36:59;7.28;;;3.60;;
10174;SDS011;18221;38.704;0.152;2023-09-18T12:39:31;4.68;;;3.03;;
10174;SDS011;18221;38.704;0.152;2023-09-18T12:41:59;3.75;;;2.88;;
10174;SDS011;18221;38.704;0.152;2023-09-18T12:44:29;3.33;;;2.53;;
10174;SDS011;18221;38.704;0.152;2023-09-18T12:47:00;3.80;;;3.00;;
10174;SDS011;18221;38.704;0.152;2023-09-18T12:49:30;6.50;;;3.50;;
10174;SDS011;18221;38.704;0.152;2023-09-18T12:51:59;4.93;;;3.13;;
10174;SDS011;18221;38.704;0.152;2023-09-18T12:54:41;6.20;;;3.22;;
10174;SDS011;18221;38.704;0.152;2023-09-18T12:57:11;4.53;;;3.08;;
10174;SDS011;18221;38.704;0.152;2023-09-18T12:59:45;6.03;;;3.20;;
10174;SDS011;18221;38.704;0.152;2023-09-18T13:02:16;5.88;;;2.83;;
10174;SDS011;18221;38.704;0.152;2023-09-18T13:04:51;6.90;;;3.10;;
10174;SDS011;18221;38.704;0.152;2023-09-18T13:07:21;4.63;;;2.88;;
10174;SDS011;18221;38.704;0.152;2023-09-18T13:09:58;6.45;;;2.97;;
10174;SDS011;18221;38.704;0.152;2023-09-18T13:12:38;4.20;;;2.83;;
10174;SDS011;18221;38.704;0.152;2023-09-18T13:15:10;5.18;;;3.10;;
10174;SDS011;18221;38.704;0.152;2023-09-18T13:17:39;4.72;;;3.00;;
10174;SDS011;18221;38.704;0.152;2023-09-18T13:20:14;4.70;;;3.03;;
10174;SDS011;18221;38.704;0.152;2023-09-18T13:22:47;4.80;;;3.00;;
10174;SDS011;18221;38.704;0.152;2023-09-18T13:25:20;4.68;;;3.00;;
10174;SDS011;18221;38.704;0.152;2023-09-18T13:27:49;4.75;;;3.10;;
10174;SDS011;18221;38.704;0.152;2023-09-18T13:30:20;4.32;;;2.90;;
10174;SDS011;18221;38.704;0.152;2023-09-18T13:32:49;4.65;;;2.97;;
10174;SDS011;18221;38.704;0.152;2023-09-18T13:35:17;4.63;;;2.78;;
10174;SDS011;18221;38.704;0.152;2023-09-18T13:37:46;4.47;;;2.90;;
10174;SDS011;18221;38.704;0.152;2023-09-18T13:40:14;6.00;;;2.70;;
10174;SDS011;18221;38.704;0.152;2023-09-18T13:42:41;5.05;;;2.60;;
10174;SDS011;18221;38.704;0.152;2023-09-18T13:45:09;5.60;;;2.90;;
10174;SDS011;18221;38.704;0.152;2023-09-18T13:47:45;4.85;;;3.08;;
10174;SDS011;18221;38.704;0.152;2023-09-18T13:50:14;5.00;;;3.20;;
10174;SDS011;18221;38.704;0.152;2023-09-18T13:52:42;4.75;;;3.03;;
10174;SDS011;18221;38.704;0.152;2023-09-18T13:55:10;5.50;;;2.65;;
10174;SDS011;18221;38.704;0.152;2023-09-18T13:57:38;6.00;;;3.17;;
10174;SDS011;18221;38.704;0.152;2023-09-18T14:00:06;4.68;;;2.67;;
10174;SDS011;18221;38.704;0.152;2023-09-18T14:02:37;4.45;;;2.70;;
10174;SDS011;18221;38.704;0.152;2023-09-18T14:05:07;3.50;;;2.70;;
10174;SDS011;18221;38.704;0.152;2023-09-18T14:07:36;5.05;;;2.65;;
10174;SDS011;18221;38.704;0.152;2023-09-18T14:10:05;5.32;;;2.80;;
10174;SDS011;18221;38.704;0.152;2023-09-18T14:12:35;2.83;;;2.30;;
10174;SDS011;18221;38.704;0.152;2023-09-18T14:15:04;4.30;;;2.63;;
10174;SDS011;18221;38.704;0.152;2023-09-18T14:17:33;4.82;;;2.92;;
10174;SDS011;18221;38.704;0.152;2023-09-18T14:20:02;6.43;;;2.70;;
10174;SDS011;18221;38.704;0.152;2023-09-18T14:22:34;5.53;;;2.70;;
10174;SDS011;18221;38.704;0.152;2023-09-18T14:25:02;4.22;;;2.65;;
10174;SDS011;18221;38.704;0.152;2023-09-18T14:27:31;7.15;;;2.80;;
10174;SDS011;18221;38.704;0.152;2023-09-18T14:30:00;4.20;;;2.83;;
10174;SDS011;18221;38.704;0.152;2023-09-18T14:32:31;5.13;;;2.30;;
10174;SDS011;18221;38.704;0.152;2023-09-18T14:35:02;4.57;;;2.53;;
10174;SDS011;18221;38.704;0.152;2023-09-18T14:37:34;4.72;;;2.75;;
10174;SDS011;18221;38.704;0.152;2023-09-18T14:40:03;6.30;;;2.40;;
10174;SDS011;18221;38.704;0.152;2023-09-18T14:42:37;3.33;;;2.33;;
10174;SDS011;18221;38.704;0.152;2023-09-18T14:45:05;4.68;;;2.65;;
10174;SDS011;18221;38.704;0.152;2023-09-18T14:47:34;6.38;;;2.53;;
10174;SDS011;18221;38.704;0.152;2023-09-18T14:50:03;5.30;;;2.72;;
10174;SDS011;18221;38.704;0.152;2023-09-18T14:52:35;7.47;;;2.95;;
10174;SDS011;18221;38.704;0.152;2023-09-18T14:55:03;4.90;;;2.88;;
10174;SDS011;18221;38.704;0.152;2023-09-18T14:57:31;5.20;;;2.60;;
10174;SDS011;18221;38.704;0.152;2023-09-18T14:59:59;3.90;;;2.35;;
10174;SDS011;18221;38.704;0.152;2023-09-18T15:02:31;5.85;;;2.97;;
10174;SDS011;18221;38.704;0.152;2023-09-18T15:05:00;5.10;;;2.90;;
10174;SDS011;18221;38.704;0.152;2023-09-18T15:07:31;6.47;;;3.00;;
10174;SDS011;18221;38.704;0.152;2023-09-18T15:10:00;6.50;;;3.38;;
10174;SDS011;18221;38.704;0.152;2023-09-18T15:12:30;4.85;;;2.83;;
10174;SDS011;18221;38.704;0.152;2023-09-18T15:14:58;5.03;;;2.95;;
10174;SDS011;18221;38.704;0.152;2023-09-18T15:17:26;4.53;;;2.55;;
10174;SDS011;18221;38.704;0.152;2023-09-18T15:19:54;5.20;;;2.63;;